Cumari, Brazil
Current Conditions -  °F | °C
As of 3:00 PM on Sunday 23 Nov 2014 (Local Time) from SBUL Reporting Station
Thunderstorm Thunderstorm  
Wind Chill: 20°   Ceiling: 400
Heat Index: 20°   Visibility: 6mi
Dew Point: 19°   Wind: 14mph
Humidity: 94%   Direction: 10°N
Pressure: 30"   Gusts: NA
Location:  18.26°S, 48.15°W
Report Text: SBUL 231700Z 01012KT 9999 -TSRA BKN004 FEW050CB 20/19 Q1016
Loading
Personal Weather Stations






























Interactive Weather Map New forecast layout! Learn more

10-Day Weather Forecast

Advertisements
Track Severe Weather on mobile